Time;durP1;ratioP1;P1;durP2;ratioP2;P2;SDS_P1;SDS_P2;PMS_P1;PMS_P2;Temp;Humidity;BMP_temperature;BMP_pressure;BME280_temperature;BME280_humidity;BME280_pressure;Samples;Min_cycle;Max_cycle;Signal;HPM_P1;HPM_P2
2023/08/05 04:01:47;;;;;;;2.23;1.53;;;13.90;99.90;;;;;;5248057;23;20569;-72
2023/08/05 04:04:14;;;;;;;0.77;0.77;;;13.90;99.90;;;;;;4905730;29;20478;-73
2023/08/05 04:06:40;;;;;;;1.10;1.10;;;13.90;99.90;;;;;;4899781;29;20498;-72
2023/08/05 04:09:07;;;;;;;0.73;0.73;;;13.90;99.90;;;;;;4922199;29;20473;-71
2023/08/05 04:11:37;;;;;;;1.37;1.37;;;13.90;99.90;;;;;;4913921;29;20858;-73
2023/08/05 04:14:07;;;;;;;1.00;1.00;;;14.00;99.90;;;;;;4894822;29;20471;-72
2023/08/05 04:16:34;;;;;;;1.40;1.40;;;14.00;99.90;;;;;;4894595;29;20463;-73
2023/08/05 04:19:06;;;;;;;0.90;0.90;;;14.00;99.90;;;;;;4899499;29;20474;-72
2023/08/05 04:21:40;;;;;;;0.80;0.80;;;14.00;99.90;;;;;;4899067;29;20500;-72
2023/08/05 04:24:09;;;;;;;0.97;0.97;;;14.10;99.90;;;;;;4896418;29;20467;-71
2023/08/05 04:26:38;;;;;;;2.87;0.97;;;14.00;99.90;;;;;;4894375;29;20519;-72
2023/08/05 04:29:10;;;;;;;0.60;0.60;;;14.10;99.90;;;;;;4894884;29;20509;-73
2023/08/05 04:31:43;;;;;;;1.10;1.10;;;14.10;99.90;;;;;;4893433;29;20550;-71
2023/08/05 04:34:14;;;;;;;0.80;0.80;;;14.20;99.90;;;;;;4902352;29;20489;-72
2023/08/05 04:36:46;;;;;;;0.60;0.60;;;14.20;99.90;;;;;;4893628;29;20478;-73
2023/08/05 04:39:15;;;;;;;1.33;1.33;;;14.30;99.90;;;;;;4893995;29;20471;-73
2023/08/05 04:41:42;;;;;;;0.80;0.80;;;14.30;99.90;;;;;;4905499;29;20483;-72
2023/08/05 04:44:13;;;;;;;1.00;1.00;;;14.40;99.90;;;;;;4913283;29;20462;-73
2023/08/05 04:46:43;;;;;;;1.73;1.73;;;14.40;99.90;;;;;;4898275;29;20538;-72
2023/08/05 04:49:11;;;;;;;1.33;1.33;;;14.50;99.90;;;;;;4891407;29;20486;-71
2023/08/05 04:51:46;;;;;;;1.43;1.43;;;14.50;99.90;;;;;;4894932;29;20491;-72
2023/08/05 04:54:18;;;;;;;1.13;1.00;;;14.60;99.90;;;;;;4903616;29;20552;-72
2023/08/05 04:56:44;;;;;;;1.03;0.97;;;14.80;99.90;;;;;;4897464;29;20468;-72
2023/08/05 04:59:19;;;;;;;1.37;1.27;;;14.90;99.90;;;;;;4898962;29;20474;-72
2023/08/05 05:01:47;;;;;;;2.20;2.10;;;15.00;99.90;;;;;;4906099;29;20498;-72
2023/08/05 05:04:20;;;;;;;1.10;1.10;;;15.20;99.90;;;;;;4895864;29;20571;-72
2023/08/05 05:06:47;;;;;;;1.37;1.23;;;15.20;99.90;;;;;;4891745;29;20496;-73
2023/08/05 05:09:22;;;;;;;0.87;0.87;;;15.20;99.90;;;;;;4893993;29;20490;-72
2023/08/05 05:11:49;;;;;;;1.70;1.40;;;15.10;99.90;;;;;;4893560;29;20570;-73
2023/08/05 05:14:16;;;;;;;2.87;1.37;;;15.20;99.90;;;;;;4894176;29;20467;-72
2023/08/05 05:16:48;;;;;;;9.63;1.43;;;15.30;99.90;;;;;;4892847;29;20994;-70
2023/08/05 05:19:22;;;;;;;0.90;0.90;;;15.30;99.90;;;;;;4902055;29;20523;-70
2023/08/05 05:21:57;;;;;;;1.83;1.00;;;15.30;99.90;;;;;;4900461;29;21025;-72
2023/08/05 05:24:24;;;;;;;2.20;1.47;;;15.40;99.90;;;;;;4893318;29;20555;-72
2023/08/05 05:26:53;;;;;;;1.10;1.10;;;15.50;99.90;;;;;;4893825;29;20862;-71
2023/08/05 05:29:23;;;;;;;3.00;1.80;;;15.70;99.90;;;;;;4893699;29;20456;-72
2023/08/05 05:31:53;;;;;;;1.43;1.30;;;15.80;99.90;;;;;;4900716;29;20529;-72
2023/08/05 05:34:22;;;;;;;1.63;1.53;;;15.80;99.90;;;;;;4906311;29;20502;-72
2023/08/05 05:36:48;;;;;;;1.33;1.20;;;15.90;99.90;;;;;;4891326;29;20467;-70
2023/08/05 05:39:15;;;;;;;1.60;1.60;;;16.00;99.90;;;;;;4884846;29;20910;-72
2023/08/05 05:41:43;;;;;;;1.10;1.00;;;16.00;99.90;;;;;;4901483;29;20483;-72
2023/08/05 05:44:12;;;;;;;1.00;1.00;;;16.10;99.90;;;;;;4892742;29;20475;-72
2023/08/05 05:46:39;;;;;;;2.10;1.77;;;16.10;99.90;;;;;;4893708;29;20567;-72
2023/08/05 05:49:10;;;;;;;1.23;1.07;;;16.20;99.90;;;;;;4893836;29;20806;-72
2023/08/05 05:51:38;;;;;;;1.47;1.47;;;16.40;99.90;;;;;;4893138;29;21030;-73
2023/08/05 05:54:08;;;;;;;1.50;1.50;;;16.60;99.90;;;;;;4892602;29;20506;-71
2023/08/05 05:56:39;;;;;;;1.43;1.43;;;16.60;99.90;;;;;;4897802;29;20527;-70
2023/08/05 05:59:08;;;;;;;1.80;1.33;;;16.70;99.90;;;;;;4904113;29;20561;-72
2023/08/05 06:01:35;;;;;;;2.50;1.60;;;16.70;99.90;;;;;;4895734;29;21329;-72
2023/08/05 06:04:07;;;;;;;1.30;1.30;;;16.90;99.90;;;;;;4893428;29;20487;-73
2023/08/05 06:06:39;;;;;;;1.37;1.37;;;16.90;99.90;;;;;;4894019;29;20511;-71
2023/08/05 06:09:07;;;;;;;0.70;0.70;;;17.20;99.90;;;;;;4900278;29;20479;-71
2023/08/05 06:11:40;;;;;;;1.43;1.33;;;17.40;99.90;;;;;;4896090;29;21295;-72
2023/08/05 06:14:11;;;;;;;1.00;1.00;;;17.70;99.90;;;;;;4896890;29;20495;-73
2023/08/05 06:16:44;;;;;;;2.23;1.47;;;17.80;99.90;;;;;;4913055;29;20527;-73
2023/08/05 06:19:18;;;;;;;1.90;1.40;;;18.00;99.90;;;;;;4898798;29;20467;-73
2023/08/05 06:21:53;;;;;;;2.00;1.47;;;18.10;99.90;;;;;;4893768;29;21062;-73
2023/08/05 06:24:22;;;;;;;1.60;1.60;;;18.10;99.90;;;;;;4895728;29;20466;-72
2023/08/05 06:27:03;;;;;;;2.20;1.00;;;18.10;99.90;;;;;;4897796;29;20489;-73
2023/08/05 06:29:33;;;;;;;4.87;1.20;;;18.10;99.90;;;;;;4905267;29;20830;-72
2023/08/05 06:32:01;;;;;;;1.00;1.00;;;18.00;99.90;;;;;;4898190;29;20490;-72
2023/08/05 06:34:31;;;;;;;1.53;1.10;;;18.00;99.90;;;;;;4893787;29;20501;-71
2023/08/05 06:37:01;;;;;;;4.33;1.20;;;18.00;99.90;;;;;;4902634;29;20467;-73
2023/08/05 06:39:34;;;;;;;1.40;1.13;;;18.10;99.90;;;;;;4897805;29;20467;-73
2023/08/05 06:42:01;;;;;;;1.13;1.13;;;18.10;99.90;;;;;;4899402;29;20489;-72
2023/08/05 06:44:32;;;;;;;0.97;0.97;;;18.10;99.90;;;;;;4894652;29;21909;-73
2023/08/05 06:47:04;;;;;;;1.20;1.20;;;18.20;99.90;;;;;;4907836;29;20592;-73
2023/08/05 06:49:36;;;;;;;0.80;0.80;;;18.20;99.90;;;;;;4896799;29;20574;-71
2023/08/05 06:52:06;;;;;;;0.73;0.73;;;18.20;99.90;;;;;;4896406;29;20935;-71
2023/08/05 06:54:33;;;;;;;2.93;1.40;;;18.10;99.90;;;;;;4895780;29;20478;-70
2023/08/05 06:57:02;;;;;;;1.10;1.10;;;18.10;99.90;;;;;;4896269;29;20873;-72
2023/08/05 06:59:35;;;;;;;1.33;1.00;;;18.20;99.90;;;;;;4895782;29;20882;-72
2023/08/05 07:02:03;;;;;;;0.73;0.73;;;18.10;99.90;;;;;;4906145;29;20515;-71
2023/08/05 07:04:33;;;;;;;2.17;0.97;;;18.20;99.90;;;;;;4895108;29;20465;-72
2023/08/05 07:07:03;;;;;;;1.80;1.40;;;18.30;99.90;;;;;;4895867;29;20488;-71
2023/08/05 07:09:37;;;;;;;1.20;1.13;;;18.40;99.90;;;;;;4896192;29;20532;-71
2023/08/05 07:12:07;;;;;;;1.07;1.07;;;18.30;99.90;;;;;;4894493;29;20503;-72
2023/08/05 07:14:38;;;;;;;0.87;0.80;;;18.40;99.90;;;;;;4903885;29;20474;-71
2023/08/05 07:17:08;;;;;;;1.10;1.10;;;18.50;99.90;;;;;;4887736;29;20481;-72
2023/08/05 07:19:44;;;;;;;2.03;1.47;;;18.50;99.90;;;;;;4911585;29;20948;-72
2023/08/05 07:22:13;;;;;;;1.00;1.00;;;18.60;99.90;;;;;;4905173;29;20568;-72
2023/08/05 07:24:42;;;;;;;2.80;0.87;;;18.60;99.90;;;;;;4895801;29;20627;-72
2023/08/05 07:27:09;;;;;;;0.97;0.90;;;18.60;99.90;;;;;;4894028;29;20495;-72
2023/08/05 07:29:39;;;;;;;1.40;0.97;;;18.70;99.90;;;;;;4895573;29;20465;-73
2023/08/05 07:32:09;;;;;;;1.13;1.10;;;18.90;99.90;;;;;;4891206;29;21066;-72
2023/08/05 07:34:36;;;;;;;1.00;0.90;;;18.90;99.90;;;;;;4901746;29;20568;-70
2023/08/05 07:37:16;;;;;;;1.13;1.13;;;19.00;99.90;;;;;;4900041;29;20987;-72
2023/08/05 07:39:47;;;;;;;0.97;0.97;;;19.10;99.90;;;;;;4880427;29;20541;-71
2023/08/05 07:42:15;;;;;;;2.23;0.97;;;19.10;99.90;;;;;;4904458;29;20515;-72
2023/08/05 07:44:57;;;;;;;0.97;0.97;;;19.10;99.90;;;;;;4906530;29;20585;-72
2023/08/05 07:47:25;;;;;;;1.00;1.00;;;19.40;99.90;;;;;;4890937;29;20517;-73
2023/08/05 07:49:59;;;;;;;2.63;1.43;;;19.90;99.90;;;;;;4897592;29;20825;-72
2023/08/05 07:52:27;;;;;;;0.77;0.77;;;20.30;99.90;;;;;;4897298;29;20936;-73
2023/08/05 07:54:55;;;;;;;0.80;0.80;;;20.80;99.90;;;;;;4899512;29;20477;-73
2023/08/05 07:57:24;;;;;;;3.60;1.50;;;21.00;99.90;;;;;;4894690;29;21254;-72
2023/08/05 07:59:56;;;;;;;0.77;0.77;;;21.10;99.90;;;;;;4909145;29;20469;-72
2023/08/05 08:02:26;;;;;;;1.60;0.60;;;21.20;99.90;;;;;;4898450;29;20617;-71
2023/08/05 08:04:55;;;;;;;0.60;0.60;;;21.30;99.90;;;;;;4909654;29;20573;-72
2023/08/05 08:07:26;;;;;;;0.60;0.60;;;21.20;99.90;;;;;;4903461;29;20602;-72
2023/08/05 08:09:55;;;;;;;0.30;0.30;;;21.20;99.90;;;;;;4894117;29;20468;-72
2023/08/05 08:12:28;;;;;;;0.87;0.87;;;21.20;99.90;;;;;;4900277;29;20486;-72
2023/08/05 08:14:57;;;;;;;0.50;0.50;;;21.20;99.90;;;;;;4894778;29;20475;-72
2023/08/05 08:17:24;;;;;;;0.57;0.57;;;21.20;99.90;;;;;;4899748;29;20465;-72
2023/08/05 08:19:53;;;;;;;0.50;0.50;;;21.20;99.90;;;;;;4896124;29;20473;-71
2023/08/05 08:22:20;;;;;;;2.00;0.70;;;21.30;99.90;;;;;;4897090;29;20486;-72
2023/08/05 08:24:47;;;;;;;0.50;0.50;;;21.30;99.90;;;;;;4901704;29;20457;-72
2023/08/05 08:27:22;;;;;;;0.90;0.90;;;21.40;99.90;;;;;;4897573;29;20471;-72
2023/08/05 08:29:49;;;;;;;0.40;0.40;;;21.40;99.90;;;;;;4905439;29;20469;-72
2023/08/05 08:32:18;;;;;;;1.70;1.37;;;21.40;99.90;;;;;;4903231;29;20984;-72
2023/08/05 08:34:55;;;;;;;1.43;0.77;;;21.40;99.90;;;;;;4905121;29;20473;-72
2023/08/05 08:37:26;;;;;;;0.70;0.70;;;21.40;99.90;;;;;;4892812;29;20922;-72
2023/08/05 08:39:53;;;;;;;0.40;0.40;;;21.40;99.90;;;;;;4900911;29;20473;-72
2023/08/05 08:42:23;;;;;;;3.30;0.67;;;21.40;99.90;;;;;;4903670;29;20498;-71
2023/08/05 08:44:50;;;;;;;0.57;0.57;;;21.20;99.90;;;;;;4905193;29;21026;-71
2023/08/05 08:47:18;;;;;;;0.53;0.53;;;21.30;99.90;;;;;;4904286;29;21016;-72
2023/08/05 08:49:48;;;;;;;0.30;0.30;;;21.40;99.90;;;;;;4906037;29;20861;-72
2023/08/05 08:52:22;;;;;;;0.73;0.73;;;21.50;99.90;;;;;;4888341;29;21164;-72
2023/08/05 08:54:52;;;;;;;0.57;0.57;;;21.80;99.90;;;;;;4890862;29;20510;-72
2023/08/05 08:57:25;;;;;;;0.53;0.50;;;21.90;99.90;;;;;;4887254;29;20577;-72
2023/08/05 08:59:54;;;;;;;0.50;0.50;;;21.60;99.90;;;;;;4888286;29;21161;-72
2023/08/05 09:02:26;;;;;;;0.60;0.60;;;21.30;99.90;;;;;;4889860;29;21314;-73
2023/08/05 09:04:59;;;;;;;0.50;0.47;;;21.00;99.90;;;;;;4898501;29;20477;-71
2023/08/05 09:07:28;;;;;;;0.60;0.60;;;20.70;99.90;;;;;;4898895;29;20840;-71
2023/08/05 09:10:03;;;;;;;0.97;0.97;;;20.70;99.90;;;;;;4899971;29;20476;-72
2023/08/05 09:12:33;;;;;;;0.93;0.70;;;20.80;99.90;;;;;;4893108;29;20493;-73
2023/08/05 09:15:01;;;;;;;0.30;0.30;;;20.90;99.90;;;;;;4884948;29;20476;-72
2023/08/05 09:17:37;;;;;;;0.43;0.43;;;21.00;99.90;;;;;;4890038;29;20480;-71
2023/08/05 09:20:20;;;;;;;1.60;0.77;;;20.90;99.90;;;;;;4889040;29;20501;-71
2023/08/05 09:22:57;;;;;;;0.60;0.50;;;20.80;99.90;;;;;;4889583;29;20479;-71
2023/08/05 09:25:24;;;;;;;0.60;0.60;;;20.80;99.90;;;;;;4894411;29;20470;-72
2023/08/05 09:27:56;;;;;;;1.90;0.50;;;20.90;99.90;;;;;;4889227;29;20496;-72
2023/08/05 09:30:27;;;;;;;0.80;0.80;;;21.00;99.90;;;;;;4890805;29;20481;-71
2023/08/05 09:32:58;;;;;;;0.60;0.60;;;21.20;99.90;;;;;;4889870;29;20530;-72
2023/08/05 09:35:26;;;;;;;2.53;0.57;;;21.20;99.90;;;;;;4896732;29;20531;-70
2023/08/05 09:37:54;;;;;;;0.63;0.63;;;21.10;99.90;;;;;;4898124;29;20939;-71
2023/08/05 09:40:25;;;;;;;0.37;0.30;;;21.00;99.90;;;;;;4887547;29;20480;-72
2023/08/05 09:42:54;;;;;;;2.60;0.50;;;21.00;99.90;;;;;;4888974;29;20473;-72
2023/08/05 09:45:25;;;;;;;0.40;0.40;;;21.00;99.90;;;;;;4887837;29;20476;-70
2023/08/05 09:48:03;;;;;;;0.73;0.73;;;21.20;99.90;;;;;;4893162;29;20488;-71
2023/08/05 09:50:38;;;;;;;0.97;0.97;;;21.30;99.90;;;;;;4894531;29;20480;-72
2023/08/05 09:53:11;;;;;;;0.90;0.90;;;21.30;99.90;;;;;;4901034;29;20478;-71
2023/08/05 09:55:39;;;;;;;0.77;0.77;;;21.30;99.90;;;;;;4883409;29;20579;-72
2023/08/05 09:58:26;;;;;;;0.50;0.50;;;21.30;99.90;;;;;;4892699;29;20473;-72
2023/08/05 10:00:56;;;;;;;0.50;0.50;;;21.30;99.90;;;;;;4902747;29;20502;-72
2023/08/05 10:03:28;;;;;;;0.80;0.70;;;21.20;99.90;;;;;;4900609;29;20472;-71
2023/08/05 10:06:02;;;;;;;0.80;0.80;;;21.00;99.90;;;;;;4903970;29;20503;-71
2023/08/05 10:08:35;;;;;;;0.60;0.60;;;21.00;99.90;;;;;;4894802;29;21053;-73
2023/08/05 10:11:05;;;;;;;0.97;0.97;;;20.90;99.90;;;;;;4897473;29;20495;-71
2023/08/05 10:13:38;;;;;;;0.63;0.63;;;21.00;99.90;;;;;;4899522;29;20494;-70
2023/08/05 10:16:19;;;;;;;0.67;0.67;;;21.00;99.90;;;;;;4895681;29;20487;-71
2023/08/05 10:18:48;;;;;;;1.30;0.57;;;21.00;99.90;;;;;;4902793;29;20478;-71
2023/08/05 10:21:36;;;;;;;0.63;0.63;;;21.20;99.90;;;;;;4893015;29;20502;-72
2023/08/05 10:24:03;;;;;;;8.33;0.90;;;21.20;99.90;;;;;;4893200;29;20490;-71
2023/08/05 10:26:43;;;;;;;0.70;0.70;;;21.10;99.90;;;;;;4894723;29;20476;-71
2023/08/05 10:29:30;;;;;;;0.77;0.77;;;21.20;99.90;;;;;;4895408;29;20499;-70
2023/08/05 10:32:14;;;;;;;0.73;0.73;;;21.10;99.90;;;;;;4897467;29;20498;-71
2023/08/05 10:34:41;;;;;;;0.53;0.53;;;21.20;99.90;;;;;;4901082;29;20471;-71
2023/08/05 10:37:13;;;;;;;0.93;0.93;;;21.20;99.90;;;;;;4903372;29;20534;-70
2023/08/05 10:39:42;;;;;;;5.70;0.83;;;21.20;99.90;;;;;;4891101;29;20807;-72
2023/08/05 10:42:32;;;;;;;0.63;0.63;;;21.30;99.90;;;;;;4898984;29;20490;-71
2023/08/05 10:45:04;;;;;;;2.00;1.20;;;21.30;99.90;;;;;;4889968;29;20549;-71
2023/08/05 10:47:34;;;;;;;1.03;1.03;;;21.30;99.90;;;;;;4901148;29;20498;-70
2023/08/05 10:50:02;;;;;;;1.43;1.00;;;21.50;99.90;;;;;;4891567;29;21093;-71
2023/08/05 10:52:36;;;;;;;0.80;0.80;;;21.60;99.90;;;;;;4895683;29;20600;-72
2023/08/05 10:55:12;;;;;;;0.70;0.70;;;21.50;99.90;;;;;;4902204;29;20483;-70
2023/08/05 10:57:54;;;;;;;0.70;0.70;;;21.30;99.90;;;;;;4897173;29;20505;-71
2023/08/05 11:00:24;;;;;;;1.43;1.33;;;21.20;99.90;;;;;;4892292;29;20475;-71
2023/08/05 11:03:32;;;;;;;1.00;0.70;;;21.20;99.90;;;;;;4894860;29;20483;-72
2023/08/05 11:06:13;;;;;;;0.97;0.97;;;21.30;99.90;;;;;;4894098;29;20471;-72
2023/08/05 11:08:44;;;;;;;1.10;0.93;;;21.40;99.90;;;;;;4894980;29;20522;-71
2023/08/05 11:11:13;;;;;;;1.17;1.17;;;21.50;99.90;;;;;;4888933;29;20483;-72
2023/08/05 11:13:46;;;;;;;0.70;0.70;;;21.50;99.90;;;;;;4904948;29;20487;-72
2023/08/05 11:16:17;;;;;;;1.60;1.07;;;21.50;99.90;;;;;;4899596;29;20978;-71
2023/08/05 11:18:47;;;;;;;1.00;1.00;;;21.50;99.90;;;;;;4895852;29;20460;-71
2023/08/05 11:21:23;;;;;;;1.20;1.20;;;21.60;99.90;;;;;;4895909;29;20501;-71
2023/08/05 11:23:55;;;;;;;2.87;1.30;;;21.60;99.90;;;;;;4894364;29;20478;-72
2023/08/05 11:26:25;;;;;;;0.90;0.90;;;21.70;99.90;;;;;;4897522;29;20471;-71
2023/08/05 11:28:57;;;;;;;0.67;0.67;;;21.70;99.90;;;;;;4897995;29;20542;-71
2023/08/05 11:31:30;;;;;;;0.60;0.60;;;21.80;99.90;;;;;;4898162;29;20495;-72
2023/08/05 11:33:59;;;;;;;0.67;0.67;;;21.90;99.90;;;;;;4891975;29;20966;-71
2023/08/05 11:36:26;;;;;;;0.77;0.77;;;22.00;99.90;;;;;;4891478;29;20506;-73
2023/08/05 11:38:57;;;;;;;0.90;0.90;;;22.00;99.90;;;;;;4892036;29;20473;-72
2023/08/05 11:41:30;;;;;;;0.97;0.97;;;22.20;99.90;;;;;;4885228;29;20493;-71
2023/08/05 11:43:57;;;;;;;1.00;1.00;;;22.40;99.90;;;;;;4888942;29;20965;-70
2023/08/05 11:46:30;;;;;;;1.00;1.00;;;22.50;99.90;;;;;;4888454;29;20662;-71
2023/08/05 11:49:11;;;;;;;0.57;0.57;;;22.40;99.90;;;;;;4901719;29;20828;-70
2023/08/05 11:51:46;;;;;;;1.00;0.60;;;22.50;99.90;;;;;;4893229;29;20641;-72
2023/08/05 11:54:13;;;;;;;0.80;0.80;;;22.70;99.90;;;;;;4899675;29;20470;-72
2023/08/05 11:56:46;;;;;;;0.57;0.57;;;22.80;99.90;;;;;;4891024;29;20494;-72
2023/08/05 11:59:14;;;;;;;0.80;0.80;;;22.80;99.90;;;;;;4894123;29;20511;-72
2023/08/05 12:01:47;;;;;;;2.13;1.27;;;22.90;99.90;;;;;;4883924;29;20514;-73
2023/08/05 12:04:22;;;;;;;1.17;0.80;;;22.70;99.90;;;;;;4893781;29;20497;-70
2023/08/05 12:06:49;;;;;;;2.03;0.73;;;22.80;99.90;;;;;;4895421;29;20912;-71
2023/08/05 12:09:19;;;;;;;0.83;0.83;;;22.80;99.90;;;;;;4886815;29;20882;-72
2023/08/05 12:11:46;;;;;;;1.33;0.70;;;22.70;99.90;;;;;;4894136;29;20504;-73
2023/08/05 12:14:14;;;;;;;1.37;1.37;;;22.40;99.90;;;;;;4900180;29;21006;-71
2023/08/05 12:16:43;;;;;;;1.30;1.30;;;22.20;99.90;;;;;;4894481;29;20487;-71
2023/08/05 12:19:20;;;;;;;0.80;0.80;;;22.20;99.90;;;;;;4883226;29;20471;-72
2023/08/05 12:21:48;;;;;;;0.97;0.97;;;22.10;99.90;;;;;;4893147;29;21352;-71
2023/08/05 12:24:17;;;;;;;0.60;0.60;;;22.20;99.90;;;;;;4892883;29;20479;-72
2023/08/05 12:26:44;;;;;;;0.73;0.73;;;22.20;99.90;;;;;;4898621;29;21029;-71
2023/08/05 12:29:15;;;;;;;0.83;0.50;;;22.20;99.90;;;;;;4887627;29;20564;-72
2023/08/05 12:31:47;;;;;;;1.17;1.17;;;22.40;99.90;;;;;;4879689;29;20503;-72
2023/08/05 12:34:27;;;;;;;0.87;0.87;;;22.60;99.90;;;;;;4892017;29;20952;-71
2023/08/05 12:36:57;;;;;;;0.70;0.70;;;22.80;99.90;;;;;;4891425;29;20550;-68
2023/08/05 12:39:26;;;;;;;0.80;0.80;;;22.80;99.90;;;;;;4883590;29;20461;-71
2023/08/05 12:41:55;;;;;;;0.53;0.53;;;22.80;99.90;;;;;;4893038;29;20517;-71
2023/08/05 12:44:24;;;;;;;0.30;0.30;;;22.60;99.90;;;;;;4893594;29;20840;-71
2023/08/05 12:46:52;;;;;;;0.70;0.70;;;22.60;99.90;;;;;;4901173;29;21162;-72
2023/08/05 12:49:24;;;;;;;1.87;1.77;;;22.70;99.90;;;;;;4888846;29;20558;-71
2023/08/05 12:51:58;;;;;;;0.80;0.80;;;22.60;99.90;;;;;;4889256;29;20610;-72
2023/08/05 12:54:26;;;;;;;0.80;0.80;;;22.70;99.90;;;;;;4888683;29;20482;-72
2023/08/05 12:56:53;;;;;;;1.20;1.10;;;22.60;99.90;;;;;;4894813;29;20841;-72
2023/08/05 12:59:22;;;;;;;1.07;1.07;;;22.60;99.90;;;;;;4889705;29;20569;-71
2023/08/05 13:01:49;;;;;;;0.87;0.87;;;22.40;99.90;;;;;;4901738;29;20980;-72
2023/08/05 13:04:19;;;;;;;1.30;1.30;;;22.20;99.90;;;;;;4904514;29;20467;-69
2023/08/05 13:06:50;;;;;;;1.20;1.20;;;22.10;99.90;;;;;;4898381;29;20476;-72
2023/08/05 13:09:23;;;;;;;1.60;0.80;;;22.30;99.90;;;;;;4878748;29;20493;-72
2023/08/05 13:12:01;;;;;;;0.70;0.70;;;22.40;99.90;;;;;;4889785;29;20582;-72
2023/08/05 13:14:38;;;;;;;0.87;0.70;;;22.60;99.90;;;;;;4881834;29;20469;-71
2023/08/05 13:17:09;;;;;;;1.10;1.10;;;22.70;99.90;;;;;;4888501;29;20570;-72
2023/08/05 13:19:36;;;;;;;0.60;0.60;;;22.80;99.90;;;;;;4895144;29;20455;-72
2023/08/05 13:22:06;;;;;;;0.93;0.93;;;22.80;99.90;;;;;;4892096;29;20489;-71
2023/08/05 13:24:39;;;;;;;0.73;0.73;;;22.80;99.90;;;;;;4901901;29;20471;-71
2023/08/05 13:27:10;;;;;;;1.10;1.10;;;22.70;99.90;;;;;;4890940;29;20493;-72
2023/08/05 13:29:43;;;;;;;0.87;0.87;;;22.60;99.90;;;;;;4892461;29;20492;-72
2023/08/05 13:32:11;;;;;;;0.83;0.83;;;22.60;99.90;;;;;;4894246;29;20547;-72
2023/08/05 13:34:41;;;;;;;1.30;1.30;;;22.50;99.90;;;;;;4911067;29;20580;-71
2023/08/05 13:37:10;;;;;;;0.90;0.90;;;22.40;99.90;;;;;;4890138;29;20541;-72
2023/08/05 13:39:43;;;;;;;1.30;1.30;;;22.40;99.90;;;;;;4896038;29;20460;-71
2023/08/05 13:42:14;;;;;;;0.77;0.77;;;22.40;99.90;;;;;;4894989;29;20492;-72
2023/08/05 13:44:47;;;;;;;0.90;0.90;;;22.40;99.90;;;;;;4902443;29;20484;-72
2023/08/05 13:47:19;;;;;;;0.90;0.90;;;22.30;99.90;;;;;;4897861;29;20476;-72
2023/08/05 13:49:47;;;;;;;1.20;1.20;;;22.20;99.90;;;;;;4905085;29;20540;-72
2023/08/05 13:52:14;;;;;;;1.60;1.50;;;22.20;99.90;;;;;;4896046;29;20527;-70
2023/08/05 13:54:48;;;;;;;0.80;0.80;;;22.10;99.90;;;;;;4903752;29;20981;-72
2023/08/05 13:57:20;;;;;;;2.37;1.03;;;22.10;99.90;;;;;;4894310;29;20491;-71
2023/08/05 13:59:50;;;;;;;1.30;1.20;;;22.10;99.90;;;;;;4904184;29;20464;-71
2023/08/05 14:02:17;;;;;;;0.90;0.90;;;22.00;99.90;;;;;;4904191;29;20504;-72
2023/08/05 14:04:45;;;;;;;1.30;1.30;;;22.00;99.90;;;;;;4893581;29;20472;-72
2023/08/05 14:07:12;;;;;;;1.37;1.30;;;22.00;99.90;;;;;;4896813;29;20981;-71
2023/08/05 14:09:39;;;;;;;2.00;1.90;;;22.10;99.90;;;;;;4905083;29;21014;-72
2023/08/05 14:12:11;;;;;;;1.30;0.93;;;22.20;99.90;;;;;;4905753;29;20907;-71
2023/08/05 14:14:40;;;;;;;6.30;1.80;;;22.30;99.90;;;;;;4914150;29;20454;-72
2023/08/05 14:17:08;;;;;;;0.87;0.87;;;22.40;99.90;;;;;;4914183;29;20470;-72
2023/08/05 14:19:37;;;;;;;1.07;1.07;;;22.50;99.90;;;;;;4896560;29;20470;-72
2023/08/05 14:22:04;;;;;;;1.00;1.00;;;22.50;99.90;;;;;;4897934;29;20500;-72
2023/08/05 14:24:31;;;;;;;0.63;0.57;;;22.60;99.90;;;;;;4905317;29;20499;-72
2023/08/05 14:27:01;;;;;;;0.97;0.97;;;22.70;99.90;;;;;;4900285;29;20480;-69
2023/08/05 14:29:34;;;;;;;1.17;1.17;;;22.80;99.90;;;;;;4891264;29;20491;-71
2023/08/05 14:32:03;;;;;;;0.87;0.87;;;22.80;99.90;;;;;;4898497;29;20495;-71
2023/08/05 14:34:30;;;;;;;1.23;1.20;;;23.00;99.90;;;;;;4899481;29;20505;-72
2023/08/05 14:36:58;;;;;;;0.80;0.80;;;23.10;99.90;;;;;;4894868;29;20977;-72
2023/08/05 14:39:28;;;;;;;0.90;0.90;;;23.30;99.90;;;;;;4900659;29;20469;-72
2023/08/05 14:41:59;;;;;;;1.60;1.50;;;23.40;99.90;;;;;;4899520;29;20636;-71
2023/08/05 14:44:27;;;;;;;1.80;1.20;;;23.30;99.90;;;;;;4894930;29;21206;-70
2023/08/05 14:46:57;;;;;;;1.90;1.50;;;23.20;99.90;;;;;;4894193;29;20496;-67
2023/08/05 14:49:27;;;;;;;1.20;1.20;;;23.10;99.90;;;;;;4893744;29;20473;-68
2023/08/05 14:51:54;;;;;;;1.90;1.03;;;23.00;99.90;;;;;;4895687;29;20588;-69
2023/08/05 14:54:23;;;;;;;1.33;1.33;;;23.00;99.90;;;;;;4903456;29;20477;-69
2023/08/05 14:56:50;;;;;;;1.60;1.50;;;23.00;99.90;;;;;;4892891;29;21010;-68
2023/08/05 14:59:28;;;;;;;1.30;1.30;;;23.10;99.90;;;;;;4903277;29;20554;-67
2023/08/05 15:01:59;;;;;;;1.20;1.20;;;23.10;99.90;;;;;;4895411;29;20487;-68
2023/08/05 15:04:30;;;;;;;1.00;1.00;;;23.00;99.90;;;;;;4889044;29;20549;-69
2023/08/05 15:06:59;;;;;;;1.00;1.00;;;23.10;99.90;;;;;;4899191;29;20547;-67
2023/08/05 15:09:27;;;;;;;1.07;1.07;;;23.20;99.90;;;;;;4912105;29;20537;-69
2023/08/05 15:11:54;;;;;;;1.40;1.40;;;23.20;99.90;;;;;;4904406;29;20493;-67
2023/08/05 15:14:24;;;;;;;1.33;1.33;;;23.20;99.90;;;;;;4897069;29;20547;-69
2023/08/05 15:16:51;;;;;;;1.73;1.70;;;23.30;99.90;;;;;;4900680;29;20835;-69
2023/08/05 15:19:27;;;;;;;1.20;1.20;;;23.20;99.90;;;;;;4899429;29;20856;-70
2023/08/05 15:21:54;;;;;;;1.00;1.00;;;23.30;99.90;;;;;;4896272;29;20489;-66
2023/08/05 15:24:22;;;;;;;1.23;1.23;;;23.20;99.90;;;;;;4898968;29;20885;-69
2023/08/05 15:26:49;;;;;;;0.80;0.73;;;23.10;99.90;;;;;;4899607;29;20938;-69
2023/08/05 15:29:17;;;;;;;1.17;1.17;;;23.10;99.90;;;;;;4891507;29;20472;-69
2023/08/05 15:31:51;;;;;;;1.70;1.13;;;23.10;99.90;;;;;;4895605;29;20497;-67
2023/08/05 15:34:20;;;;;;;1.20;1.20;;;23.00;99.90;;;;;;4894994;29;20544;-69
2023/08/05 15:36:48;;;;;;;3.37;1.23;;;22.90;99.90;;;;;;4891422;29;20505;-69
2023/08/05 15:39:18;;;;;;;0.70;0.70;;;22.80;99.90;;;;;;4894744;29;20464;-70
2023/08/05 15:41:45;;;;;;;0.70;0.70;;;22.70;99.90;;;;;;4896023;29;20769;-69
2023/08/05 15:44:15;;;;;;;0.83;0.83;;;22.60;99.90;;;;;;4894984;29;20472;-68
2023/08/05 15:46:43;;;;;;;1.37;0.90;;;22.50;99.90;;;;;;4903560;29;20467;-72
2023/08/05 15:49:10;;;;;;;1.07;0.97;;;22.60;99.90;;;;;;4895643;29;20474;-70
2023/08/05 15:51:40;;;;;;;1.33;1.33;;;22.60;99.90;;;;;;4894328;29;20502;-72
2023/08/05 15:54:08;;;;;;;1.00;1.00;;;22.60;99.90;;;;;;4903440;29;20467;-71
2023/08/05 15:56:35;;;;;;;0.80;0.80;;;22.60;99.90;;;;;;4894998;29;20509;-71
2023/08/05 15:59:06;;;;;;;1.07;1.07;;;22.60;99.90;;;;;;4895695;29;20464;-72
2023/08/05 16:01:34;;;;;;;1.17;1.17;;;22.60;99.90;;;;;;4894500;29;20522;-73
2023/08/05 16:04:01;;;;;;;1.40;1.10;;;22.60;99.90;;;;;;4903931;29;20467;-71
2023/08/05 16:06:29;;;;;;;1.20;1.20;;;22.60;99.90;;;;;;4888216;29;20475;-71
2023/08/05 16:08:58;;;;;;;1.37;1.27;;;22.40;99.90;;;;;;4896054;29;20460;-71
2023/08/05 16:11:42;;;;;;;0.83;0.83;;;22.30;99.90;;;;;;4894808;29;20558;-71
2023/08/05 16:14:15;;;;;;;1.03;1.03;;;22.10;99.90;;;;;;4890426;29;20471;-69
2023/08/05 16:16:58;;;;;;;1.10;1.10;;;22.00;99.90;;;;;;4896217;29;20472;-73
2023/08/05 16:19:26;;;;;;;1.30;1.30;;;22.00;99.90;;;;;;4906755;29;20515;-73
2023/08/05 16:21:54;;;;;;;0.97;0.97;;;22.00;99.90;;;;;;4894951;29;20509;-72
2023/08/05 16:24:23;;;;;;;0.70;0.70;;;21.90;99.90;;;;;;4894742;29;20469;-72
2023/08/05 16:26:51;;;;;;;1.43;1.13;;;21.90;99.90;;;;;;4895065;29;20959;-73
2023/08/05 16:29:21;;;;;;;0.90;0.90;;;21.90;99.90;;;;;;4893676;29;20474;-73
2023/08/05 16:31:54;;;;;;;0.90;0.90;;;21.90;99.90;;;;;;4893075;29;20502;-73
2023/08/05 16:34:21;;;;;;;0.80;0.80;;;22.00;99.90;;;;;;4895250;29;20479;-72
2023/08/05 16:36:48;;;;;;;0.77;0.77;;;22.00;99.90;;;;;;4894960;29;20478;-73
2023/08/05 16:39:18;;;;;;;1.13;1.13;;;21.90;99.90;;;;;;4894943;29;20544;-70
2023/08/05 16:41:47;;;;;;;6.00;1.80;;;21.90;99.90;;;;;;4895656;29;20511;-72
2023/08/05 16:44:14;;;;;;;1.20;1.10;;;21.90;99.90;;;;;;4896814;29;20976;-72
2023/08/05 16:46:43;;;;;;;1.10;1.10;;;21.90;99.90;;;;;;4902544;29;20912;-72
2023/08/05 16:49:10;;;;;;;2.27;1.27;;;21.90;99.90;;;;;;4896343;29;20466;-71
2023/08/05 16:51:52;;;;;;;1.10;0.90;;;21.80;99.90;;;;;;4901650;29;20501;-73
2023/08/05 16:54:19;;;;;;;1.43;1.30;;;21.80;99.90;;;;;;4901404;29;20479;-72
2023/08/05 16:56:51;;;;;;;2.40;0.90;;;21.80;99.90;;;;;;4897876;29;20526;-72
2023/08/05 16:59:23;;;;;;;3.23;1.00;;;21.80;99.90;;;;;;4898081;29;20471;-72
2023/08/05 17:02:05;;;;;;;5.93;1.60;;;21.80;99.90;;;;;;4900135;29;20518;-73
2023/08/05 17:04:32;;;;;;;1.30;1.20;;;21.80;99.90;;;;;;4892071;29;20478;-72
2023/08/05 17:07:01;;;;;;;0.70;0.70;;;21.80;99.90;;;;;;4907191;29;20466;-73